Pagrindinis puslapis
METAR-TAF:

METAR-TAF

Oro uostai :

Marham, Anglija

platuma: 52-39N, ilguma: 000-34E, Aukštis: 23 m

Dabartinis oras

Ataskaita buvo paskelbta 43 minutes, ne 05:50 UTC
Vėjas 6 kt iš Pietų
Temperatūra 18°C
Drėgmė 88%
Slėgis 1008 hPa
Matomumas 10 km arba daugiau

METAR: EGYM 200550Z AUTO 19006KT 9999 NCD 18/16 Q1008

Laikas: 07:33 (06:33 UTC)

Prognozė

Ataskaita buvo paskelbta 17 valandos ir 10 minutes, ne 13:23 UTC
Prognozė galioja nuo 19 metu 15 UTC su 19 metu 18 UTC
Vėjas 5 kt iš Pietų
Matomumas 10 km arba daugiau
nėra debesų žemiau 1500 m ir nėra kamuolinių lietaus debesų

TAF: EGYM 191323Z 1915/1918 17005KT CAVOK

Orai ataskaitas ir orų prognozės (METAR, TAF).

turimą stotys yra geltonos ir raudonos taškus žemėlapyje.

Perkelti pele per norėdami pamatyti stoties vardą.

Tada spustelėkite, norėdami matyti oro stebėjimo ir prognozės.

Norėdami pakeisti žemėlapį: spustelėkite ant žalios mygtukų su juodo kryžiaus žemyn,; žalią mygtuką su brūkšneliu, jei norite nutolinti; arba žalių rodyklių gretimoms žemėlapius.


METAR-TAF: